CheckWX is a tool to help pilots better visualize weather data.  It is not intended as a substitute for an official pre-flight weather briefing.

15:12:46 UTC

KSFM METAR
Sanford Seacoast Regional Airport
Sanford, Maine, USA
Current

17 mins ago

KSFM 261456Z AUTO 25010KT 10SM FEW033 24/15 A2982 RMK AO2 SLP100 6//// T02390150 56010 PNO $
Observed
May-26 @ 14:56 UTC
Wind
  • 250° at 10 KTS
Visibility
10 SM
Flight Rules
VFR
Cloud Levels
  • Few at 3,300' AGL
Temperature
24°C / 75°F
Dewpoint
15°C / 59°F
Humidity
57%
Altimeter
29.82" Hg
Pressure
1009.82 hPa
Previous

1 hour ago

KSFM 261356Z AUTO 26011KT 10SM CLR 21/14 A2983 RMK AO2 SLP103 T02060144 PNO $
Observed
May-26 @ 13:56 UTC
Wind
  • 260° at 11 KTS
Visibility
10 SM
Flight Rules
VFR
Cloud Levels
  • Clear skies
Temperature
21°C / 70°F
Dewpoint
14°C / 57°F
Humidity
64%
Altimeter
29.83" Hg
Pressure
1010.12 hPa
Previous

2 hours ago

KSFM 261256Z AUTO 26010KT 10SM CLR 18/13 A2984 RMK AO2 SLP106 T01830133 PNO $
Observed
May-26 @ 12:56 UTC
Wind
  • 260° at 10 KTS
Visibility
10 SM
Flight Rules
VFR
Cloud Levels
  • Clear skies
Temperature
18°C / 64°F
Dewpoint
13°C / 55°F
Humidity
73%
Altimeter
29.84" Hg
Pressure
1010.52 hPa